createdAt,value
2023-04-09T00:00:22.952Z,4.6
2023-04-09T00:05:29.052Z,4.5
2023-04-09T00:10:35.153Z,4.4
2023-04-09T00:15:41.248Z,4.2
2023-04-09T00:20:47.347Z,4.1
2023-04-09T00:25:53.440Z,3.9
2023-04-09T00:30:59.543Z,3.8
2023-04-09T00:36:05.645Z,3.8
2023-04-09T00:41:11.752Z,3.7
2023-04-09T00:46:17.830Z,3.6
2023-04-09T00:51:23.937Z,3.5
2023-04-09T00:56:30.037Z,3.5
2023-04-09T01:01:35.150Z,3.4
2023-04-09T01:06:41.257Z,3.4
2023-04-09T01:11:47.377Z,3.5
2023-04-09T01:21:59.552Z,3.6
2023-04-09T01:27:05.656Z,3.7
2023-04-09T01:32:11.741Z,3.7
2023-04-09T01:37:17.839Z,3.6
2023-04-09T01:42:23.951Z,3.5
2023-04-09T01:47:30.029Z,3.4
2023-04-09T01:52:36.132Z,3.3
2023-04-09T01:57:42.247Z,3.2
2023-04-09T02:02:48.343Z,3
2023-04-09T02:07:53.457Z,2.8
2023-04-09T02:12:59.541Z,2.8
2023-04-09T02:18:05.651Z,2.6
2023-04-09T02:23:11.753Z,2.5
2023-04-09T02:28:17.933Z,2.2
2023-04-09T02:33:23.954Z,2.2
2023-04-09T02:38:29.076Z,2.2
2023-04-09T02:43:35.165Z,2.5
2023-04-09T02:48:41.267Z,2.7
2023-04-09T02:53:47.370Z,2.8
2023-04-09T02:58:53.498Z,2.8
2023-04-09T03:03:59.573Z,2.8
2023-04-09T03:09:05.673Z,2.7
2023-04-09T03:14:11.780Z,2.7
2023-04-09T03:19:17.860Z,2.6
2023-04-09T03:24:23.985Z,2.5
2023-04-09T03:29:30.056Z,2.4
2023-04-09T03:34:36.162Z,2.2
2023-04-09T03:39:43.315Z,2.2
2023-04-09T03:44:47.417Z,2
2023-04-09T03:49:53.469Z,2
2023-04-09T03:54:59.589Z,2
2023-04-09T04:00:05.668Z,1.9
2023-04-09T04:05:11.754Z,1.8
2023-04-09T04:10:17.862Z,1.7
2023-04-09T04:15:23.956Z,1.6
2023-04-09T04:20:30.059Z,1.4
2023-04-09T04:25:36.168Z,1.1
2023-04-09T04:30:42.262Z,1
2023-04-09T04:35:48.364Z,0.8
2023-04-09T04:40:54.453Z,0.8
2023-04-09T04:46:00.602Z,0.9
2023-04-09T04:51:05.677Z,0.9
2023-04-09T04:56:11.784Z,0.9
2023-04-09T05:01:17.877Z,0.9
2023-04-09T05:06:23.978Z,0.9
2023-04-09T05:11:30.075Z,0.9
2023-04-09T05:16:36.192Z,1.1
2023-04-09T05:21:42.278Z,1.5
2023-04-09T05:26:48.388Z,1.7
2023-04-09T05:31:54.499Z,1.7
2023-04-09T05:37:00.578Z,1.8
2023-04-09T05:42:06.695Z,1.9
2023-04-09T05:47:12.780Z,2
2023-04-09T05:52:18.894Z,2.1
2023-04-09T05:57:24.003Z,2.3
2023-04-09T06:02:30.094Z,2.5
2023-04-09T06:07:36.209Z,2.6
2023-04-09T06:12:42.305Z,2.8
2023-04-09T06:17:48.471Z,3
2023-04-09T06:22:54.476Z,3.2
2023-04-09T06:28:00.606Z,3.4
2023-04-09T06:33:06.700Z,3.6
2023-04-09T06:38:12.807Z,3.8
2023-04-09T06:43:18.875Z,4.1
2023-04-09T06:48:24.993Z,4.5
2023-04-09T06:53:31.082Z,4.9
2023-04-09T06:58:37.190Z,5.2
2023-04-09T07:03:42.298Z,5.2
2023-04-09T07:08:48.426Z,5.4
2023-04-09T07:13:54.546Z,5.6
2023-04-09T07:19:00.801Z,5.7
2023-04-09T07:24:06.821Z,5.8
2023-04-09T07:29:12.879Z,6
2023-04-09T07:34:18.892Z,6.3
2023-04-09T07:39:24.973Z,6.5
2023-04-09T07:44:31.182Z,6.8
2023-04-09T07:49:37.336Z,7
2023-04-09T07:54:43.462Z,7.4
2023-04-09T07:59:49.533Z,7.7
2023-04-09T08:04:55.643Z,8
2023-04-09T08:10:00.722Z,8.2
2023-04-09T08:15:06.867Z,8.5
2023-04-09T08:20:12.844Z,8.8
2023-04-09T08:25:19.089Z,9
2023-04-09T08:30:24.978Z,9.6
2023-04-09T08:35:31.195Z,9.8
2023-04-09T08:40:37.279Z,10
2023-04-09T08:45:43.449Z,10.6
2023-04-09T08:50:49.355Z,11.1
2023-04-09T08:55:55.452Z,12.1
2023-04-09T09:01:01.758Z,12.3
2023-04-09T09:06:07.809Z,12.2
2023-04-09T09:11:13.747Z,12.7
2023-04-09T09:16:18.977Z,13.8
2023-04-09T09:21:24.999Z,13.6
2023-04-09T09:26:31.149Z,13.8
2023-04-09T09:31:37.119Z,14
2023-04-09T09:36:43.368Z,14.6
2023-04-09T09:41:49.555Z,14.9
2023-04-09T09:46:55.417Z,14.8
2023-04-09T09:52:01.526Z,14.5
2023-04-09T09:57:07.613Z,15.9
2023-04-09T10:02:13.721Z,16.3
2023-04-09T10:07:19.816Z,17
2023-04-09T10:12:25.913Z,16.4
2023-04-09T10:17:31.997Z,16.6
2023-04-09T10:22:37.112Z,17.1
2023-04-09T10:27:43.208Z,17.9
2023-04-09T10:32:49.306Z,18.2
2023-04-09T10:37:55.398Z,17.8
2023-04-09T10:43:01.500Z,18.6
2023-04-09T10:48:07.577Z,18.2
2023-04-09T10:53:13.698Z,18.7
2023-04-09T10:58:19.797Z,19.5
2023-04-09T11:03:25.875Z,18.8
2023-04-09T11:08:31.984Z,18.2
2023-04-09T11:13:38.062Z,19.1
2023-04-09T11:18:43.190Z,20.4
2023-04-09T11:23:48.273Z,20.7
2023-04-09T11:28:54.385Z,21.3
2023-04-09T11:34:00.470Z,21.2
2023-04-09T11:39:06.561Z,20.2
2023-04-09T11:44:12.669Z,20.4
2023-04-09T11:49:17.761Z,20.5
2023-04-09T11:54:22.896Z,21.1
2023-04-09T11:59:28.978Z,21.3
2023-04-09T12:04:35.077Z,20.9
2023-04-09T12:09:41.183Z,21.9
2023-04-09T12:14:47.283Z,22.5
2023-04-09T12:19:53.380Z,22.1
2023-04-09T12:24:59.471Z,21.6
2023-04-09T12:30:05.560Z,21.6
2023-04-09T12:35:11.660Z,22.1
2023-04-09T12:40:17.766Z,21.1
2023-04-09T12:45:23.863Z,20.7
2023-04-09T12:50:29.942Z,19.8
2023-04-09T12:55:36.026Z,18.1
2023-04-09T13:00:41.139Z,18.4
2023-04-09T13:05:47.264Z,18.8
2023-04-09T13:10:53.355Z,18.9
2023-04-09T13:15:59.441Z,20.6
2023-04-09T13:21:05.519Z,22.1
2023-04-09T13:26:11.633Z,21.3
2023-04-09T13:31:17.723Z,22.2
2023-04-09T13:36:23.811Z,22.4
2023-04-09T13:41:29.912Z,22.4
2023-04-09T13:46:36.097Z,20.3
2023-04-09T13:51:42.108Z,19.5
2023-04-09T13:56:48.216Z,21
2023-04-09T14:01:54.317Z,20.7
2023-04-09T14:06:59.411Z,19.7
2023-04-09T14:12:05.520Z,21.2
2023-04-09T14:17:11.612Z,20.1
2023-04-09T14:22:17.700Z,18.9
2023-04-09T14:27:23.789Z,19.7
2023-04-09T14:32:29.903Z,21.7
2023-04-09T14:37:36.004Z,20.5
2023-04-09T14:42:42.097Z,19.2
2023-04-09T14:47:48.198Z,18.1
2023-04-09T14:52:55.418Z,16.7
2023-04-09T14:58:00.382Z,16.1
2023-04-09T15:03:06.473Z,16
2023-04-09T15:08:12.578Z,16.1
2023-04-09T15:13:17.671Z,16
2023-04-09T15:18:23.775Z,15.8
2023-04-09T15:23:29.900Z,15.7
2023-04-09T15:28:35.970Z,15.8
2023-04-09T15:33:42.065Z,15.5
2023-04-09T15:38:48.149Z,15.5
2023-04-09T15:43:54.255Z,15.5
2023-04-09T15:49:00.544Z,15.6
2023-04-09T15:54:06.434Z,15.6
2023-04-09T15:59:12.534Z,15.1
2023-04-09T16:04:18.625Z,15.2
2023-04-09T16:09:24.729Z,14.9
2023-04-09T16:14:30.828Z,14.8
2023-04-09T16:19:35.924Z,14.9
2023-04-09T16:24:42.019Z,14.9
2023-04-09T16:29:48.113Z,14.6
2023-04-09T16:34:54.220Z,14.6
2023-04-09T16:40:00.336Z,14.5
2023-04-09T16:45:06.404Z,14.5
2023-04-09T16:50:12.495Z,14.5
2023-04-09T16:55:18.613Z,14.6
2023-04-09T17:00:24.707Z,15.1
2023-04-09T17:05:30.777Z,16.1
2023-04-09T17:10:36.880Z,15.6
2023-04-09T17:15:42.985Z,15.7
2023-04-09T17:20:49.156Z,15.7
2023-04-09T17:25:54.260Z,15.4
2023-04-09T17:31:00.279Z,14.4
2023-04-09T17:36:06.377Z,13.8
2023-04-09T17:41:12.523Z,13.3
2023-04-09T17:46:18.640Z,12.9
2023-04-09T17:51:24.658Z,12.4
2023-04-09T17:56:30.756Z,11.8
2023-04-09T18:01:36.836Z,11.5
2023-04-09T18:06:42.959Z,11
2023-04-09T18:11:49.055Z,10.7
2023-04-09T18:16:55.140Z,10.4
2023-04-09T18:22:01.233Z,10
2023-04-09T18:27:07.350Z,9.8
2023-04-09T18:32:12.456Z,9.5
2023-04-09T18:37:18.543Z,9.2
2023-04-09T18:42:24.657Z,8.9
2023-04-09T18:47:30.747Z,8.8
2023-04-09T18:52:36.845Z,8.6
2023-04-09T18:57:42.933Z,8.7
2023-04-09T19:02:49.047Z,8.8
2023-04-09T19:07:55.216Z,8.8
2023-04-09T19:13:01.246Z,8.9
2023-04-09T19:18:07.343Z,8.7
2023-04-09T19:23:13.414Z,8.6
2023-04-09T19:28:19.539Z,8.8
2023-04-09T19:33:25.633Z,8.8
2023-04-09T19:38:30.751Z,8.8
2023-04-09T19:43:35.863Z,8.6
2023-04-09T19:48:41.939Z,8.1
2023-04-09T19:53:48.041Z,7.9
2023-04-09T19:58:54.168Z,7.8
2023-04-09T20:04:00.261Z,7.4
2023-04-09T20:09:06.375Z,7.1
2023-04-09T20:14:12.449Z,7
2023-04-09T20:19:18.531Z,6.8
2023-04-09T20:24:24.656Z,6.6
2023-04-09T20:29:30.713Z,6.4
2023-04-09T20:34:36.828Z,6.7
2023-04-09T20:39:42.932Z,6.6
2023-04-09T20:44:49.009Z,6.7
2023-04-09T20:49:54.133Z,6.6
2023-04-09T20:55:00.234Z,6.6
2023-04-09T21:00:06.333Z,6.5
2023-04-09T21:05:12.429Z,6.5
2023-04-09T21:10:18.555Z,6.4
2023-04-09T21:15:24.692Z,6.3
2023-04-09T21:20:30.719Z,6.4
2023-04-09T21:25:36.823Z,6.4
2023-04-09T21:30:42.934Z,6.4
2023-04-09T21:35:49.034Z,6.3
2023-04-09T21:40:55.435Z,6.2
2023-04-09T21:46:01.515Z,5.9
2023-04-09T21:51:07.314Z,5.7
2023-04-09T21:56:12.437Z,5.9
2023-04-09T22:01:18.544Z,6.3
2023-04-09T22:06:24.636Z,6.5
2023-04-09T22:11:30.763Z,6.4
2023-04-09T22:16:36.822Z,6.1
2023-04-09T22:21:42.947Z,5.6
2023-04-09T22:26:49.055Z,5.4
2023-04-09T22:31:55.131Z,5.1
2023-04-09T22:37:01.240Z,4.9
2023-04-09T22:42:07.337Z,4.8
2023-04-09T22:47:13.419Z,4.6
2023-04-09T22:52:19.522Z,4.6
2023-04-09T22:57:25.622Z,4.5
2023-04-09T23:02:30.724Z,4.4
2023-04-09T23:07:36.848Z,4.4
2023-04-09T23:12:42.926Z,4.4
2023-04-09T23:17:49.014Z,4.4
2023-04-09T23:22:55.115Z,4.2
2023-04-09T23:28:01.209Z,4.1
2023-04-09T23:33:07.307Z,4
2023-04-09T23:38:13.406Z,4
2023-04-09T23:43:19.549Z,4.1
2023-04-09T23:48:25.624Z,4.1
2023-04-09T23:53:31.725Z,4.1
2023-04-09T23:58:37.812Z,4.5
